Time;durP1;ratioP1;P1;durP2;ratioP2;P2;SDS_P1;SDS_P2;PMS_P1;PMS_P2;Temp;Humidity;BMP_temperature;BMP_pressure;BME280_temperature;BME280_humidity;BME280_pressure;Samples;Min_cycle;Max_cycle;Signal;HPM_P1;HPM_P2
2023/05/13 02:08:41;;;;;;;1999.90;999.90;;;;;;;;;;5542887;23;20250;-75
2023/05/13 02:11:26;;;;;;;1999.90;999.90;;;;;;;;;;4973764;28;20310;-74
2023/05/13 02:14:11;;;;;;;1999.90;999.90;;;;;;;;;;4974206;28;20692;-72
2023/05/13 02:16:56;;;;;;;1999.90;999.90;;;;;;;;;;4969554;28;20494;-73
2023/05/13 02:19:40;;;;;;;1999.90;999.90;;;;;;;;;;4968415;28;20235;-72
2023/05/13 02:22:26;;;;;;;1999.90;999.90;;;;;;;;;;4968506;28;20347;-72
2023/05/13 02:25:12;;;;;;;1999.90;999.90;;;;;;;;;;4964993;28;20235;-71
2023/05/13 02:27:58;;;;;;;1999.90;999.90;;;;;;;;;;4964616;28;20232;-71
2023/05/13 02:30:43;;;;;;;1999.90;999.90;;;;;;;;;;4973421;28;21164;-70
2023/05/13 02:33:28;;;;;;;1999.90;999.90;;;;;;;;;;4973363;28;20211;-72
2023/05/13 02:36:13;;;;;;;1999.90;999.90;;;;;;;;;;4972815;28;20727;-71
2023/05/13 02:38:58;;;;;;;1999.90;999.90;;;;;;;;;;4972790;28;20234;-72
2023/05/13 02:41:44;;;;;;;1999.90;999.90;;;;;;;;;;4973855;28;20576;-71
2023/05/13 02:44:29;;;;;;;1999.90;999.90;;;;;;;;;;4973243;28;20336;-73
2023/05/13 02:47:14;;;;;;;1999.90;999.90;;;;;;;;;;4973214;28;20203;-71
2023/05/13 02:49:59;;;;;;;1999.90;999.90;;;;;;;;;;4973499;28;20211;-73
2023/05/13 02:52:44;;;;;;;1999.90;999.90;;;;;;;;;;4973527;28;20577;-74
2023/05/13 02:55:29;;;;;;;1999.90;999.90;;;;;;;;;;4972977;28;20206;-74
2023/05/13 02:58:15;;;;;;;1999.90;999.90;;;;;;;;;;4973072;28;20382;-72
2023/05/13 03:01:00;;;;;;;1999.90;999.90;;;;;;;;;;4973494;28;20795;-70
2023/05/13 03:03:45;;;;;;;1999.90;999.90;;;;;;;;;;4962741;28;20223;-71
2023/05/13 03:06:30;;;;;;;1999.90;999.90;;;;;;;;;;4952213;29;20933;-73
2023/05/13 03:09:15;;;;;;;1999.90;999.90;;;;;;;;;;4953625;29;20242;-73
2023/05/13 03:12:00;;;;;;;1999.90;999.90;;;;;;;;;;4953851;29;20232;-73
2023/05/13 03:14:46;;;;;;;1999.90;999.90;;;;;;;;;;4955362;28;20716;-74
2023/05/13 03:17:32;;;;;;;1999.90;999.90;;;;;;;;;;4971754;28;20342;-74
2023/05/13 03:20:17;;;;;;;1999.90;999.90;;;;;;;;;;4968232;28;20556;-74
2023/05/13 03:23:02;;;;;;;1999.90;999.90;;;;;;;;;;4953788;29;20781;-74
2023/05/13 03:25:47;;;;;;;1999.90;999.90;;;;;;;;;;4953488;29;20232;-74
2023/05/13 03:28:32;;;;;;;1999.90;999.90;;;;;;;;;;4953422;29;20743;-74
2023/05/13 03:31:18;;;;;;;1999.90;999.90;;;;;;;;;;4953784;29;20215;-74
2023/05/13 03:34:03;;;;;;;1999.90;999.90;;;;;;;;;;4953673;29;20295;-74
2023/05/13 03:36:48;;;;;;;1999.90;999.90;;;;;;;;;;4953664;29;20220;-74
2023/05/13 03:39:33;;;;;;;1999.90;999.90;;;;;;;;;;4953180;29;20230;-74
2023/05/13 03:42:18;;;;;;;1999.90;999.90;;;;;;;;;;4953360;29;20585;-73
2023/05/13 03:45:02;;;;;;;1999.90;999.90;;;;;;;;;;4952973;28;20243;-73
2023/05/13 03:47:49;;;;;;;1999.90;999.90;;;;;;;;;;4950849;28;20242;-72
2023/05/13 03:50:34;;;;;;;1999.90;999.90;;;;;;;;;;4956984;29;20701;-72
2023/05/13 03:53:19;;;;;;;1999.90;999.90;;;;;;;;;;4957200;29;20591;-72
2023/05/13 03:56:05;;;;;;;1999.90;999.90;;;;;;;;;;4949636;29;20493;-72
2023/05/13 03:58:50;;;;;;;1999.90;999.90;;;;;;;;;;4956443;29;20231;-72
2023/05/13 04:01:36;;;;;;;1999.90;999.90;;;;;;;;;;4956779;29;20220;-72
2023/05/13 04:04:22;;;;;;;1999.90;999.90;;;;;;;;;;4953968;29;20227;-73
2023/05/13 04:07:07;;;;;;;1999.90;999.90;;;;;;;;;;4956783;29;20206;-74
2023/05/13 04:09:51;;;;;;;1999.90;999.90;;;;;;;;;;4956555;29;20439;-74
2023/05/13 04:12:37;;;;;;;1999.90;999.90;;;;;;;;;;4956696;29;20225;-69
2023/05/13 04:15:22;;;;;;;1999.90;999.90;;;;;;;;;;4956814;29;20311;-70
2023/05/13 04:18:07;;;;;;;1999.90;999.90;;;;;;;;;;4950710;29;20247;-70
2023/05/13 04:20:53;;;;;;;1999.90;999.90;;;;;;;;;;4956680;29;20210;-74
2023/05/13 04:23:38;;;;;;;1999.90;999.90;;;;;;;;;;4956481;29;20222;-74
2023/05/13 04:26:23;;;;;;;1999.90;999.90;;;;;;;;;;4956595;29;20303;-74
2023/05/13 04:29:08;;;;;;;1999.90;999.90;;;;;;;;;;4950968;29;20283;-74
2023/05/13 04:31:53;;;;;;;1999.90;999.90;;;;;;;;;;4950217;29;20624;-74
2023/05/13 04:34:38;;;;;;;1999.90;999.90;;;;;;;;;;4951594;29;20319;-73
2023/05/13 04:37:24;;;;;;;1999.90;999.90;;;;;;;;;;4955174;29;20210;-71
2023/05/13 04:40:09;;;;;;;1999.90;999.90;;;;;;;;;;4950776;29;20674;-73
2023/05/13 04:42:54;;;;;;;1999.90;999.90;;;;;;;;;;4941170;29;20220;-73
2023/05/13 04:45:39;;;;;;;1999.90;999.90;;;;;;;;;;4955203;29;20440;-75
2023/05/13 04:48:26;;;;;;;1999.90;999.90;;;;;;;;;;4953919;29;21215;-74
2023/05/13 04:51:11;;;;;;;1999.90;999.90;;;;;;;;;;4950811;29;20215;-75
2023/05/13 04:53:58;;;;;;;1999.90;999.90;;;;;;;;;;4955176;29;20584;-74
2023/05/13 04:56:43;;;;;;;1999.90;999.90;;;;;;;;;;4956116;29;20300;-73
2023/05/13 04:59:28;;;;;;;1999.90;999.90;;;;;;;;;;4955513;29;20235;-75
2023/05/13 05:02:13;;;;;;;1999.90;999.90;;;;;;;;;;4949185;29;21005;-74
2023/05/13 05:04:57;;;;;;;1999.90;999.90;;;;;;;;;;4949988;29;20231;-70
2023/05/13 05:07:42;;;;;;;1999.90;999.90;;;;;;;;;;4948857;29;20312;-74
2023/05/13 05:10:29;;;;;;;1999.90;999.90;;;;;;;;;;4962430;28;20223;-74
2023/05/13 05:13:14;;;;;;;1999.90;999.90;;;;;;;;;;4971266;28;20262;-74
2023/05/13 05:15:59;;;;;;;1999.90;999.90;;;;;;;;;;4974114;28;20207;-73
2023/05/13 05:18:44;;;;;;;1999.90;999.90;;;;;;;;;;4974303;28;20360;-73
2023/05/13 05:21:29;;;;;;;1999.90;999.90;;;;;;;;;;4974423;28;20212;-74
2023/05/13 05:24:14;;;;;;;1999.90;999.90;;;;;;;;;;4974427;28;20219;-72
2023/05/13 05:27:01;;;;;;;1999.90;999.90;;;;;;;;;;4972153;28;20679;-73
2023/05/13 05:29:45;;;;;;;1999.90;999.90;;;;;;;;;;4961267;28;20702;-74
2023/05/13 05:32:30;;;;;;;1999.90;999.90;;;;;;;;;;4969447;28;20215;-76
2023/05/13 05:35:18;;;;;;;1999.90;999.90;;;;;;;;;;4972886;28;20411;-72
2023/05/13 05:38:04;;;;;;;1999.90;999.90;;;;;;;;;;4973843;28;20236;-73
2023/05/13 05:40:49;;;;;;;1999.90;999.90;;;;;;;;;;4970931;28;20204;-74
2023/05/13 05:43:35;;;;;;;1999.90;999.90;;;;;;;;;;4974115;28;20211;-74
2023/05/13 05:46:21;;;;;;;1999.90;999.90;;;;;;;;;;4973673;28;20216;-71
2023/05/13 05:49:07;;;;;;;1999.90;999.90;;;;;;;;;;4973835;28;20323;-74
2023/05/13 05:51:52;;;;;;;1999.90;999.90;;;;;;;;;;4969616;28;20393;-73
2023/05/13 05:54:37;;;;;;;1999.90;999.90;;;;;;;;;;4973851;28;20682;-72
2023/05/13 05:57:21;;;;;;;1999.90;999.90;;;;;;;;;;4973683;28;20695;-74
2023/05/13 06:00:09;;;;;;;1999.90;999.90;;;;;;;;;;4973721;28;20211;-71
2023/05/13 06:02:55;;;;;;;1999.90;999.90;;;;;;;;;;4973707;28;20263;-72
2023/05/13 06:05:41;;;;;;;1999.90;999.90;;;;;;;;;;4968434;28;20752;-70
2023/05/13 06:08:28;;;;;;;1999.90;999.90;;;;;;;;;;4970294;28;20327;-71
2023/05/13 06:11:13;;;;;;;1999.90;999.90;;;;;;;;;;4973017;28;20211;-69
2023/05/13 06:13:58;;;;;;;1999.90;999.90;;;;;;;;;;4973655;28;20207;-74
2023/05/13 06:16:45;;;;;;;1999.90;999.90;;;;;;;;;;4970317;28;20239;-74
2023/05/13 06:19:30;;;;;;;1999.90;999.90;;;;;;;;;;4973143;28;20364;-73
2023/05/13 06:22:15;;;;;;;1999.90;999.90;;;;;;;;;;4973528;28;20212;-72
2023/05/13 06:25:00;;;;;;;1999.90;999.90;;;;;;;;;;4962472;28;20798;-73
2023/05/13 06:27:45;;;;;;;1999.90;999.90;;;;;;;;;;4960626;28;20243;-73
2023/05/13 06:30:30;;;;;;;1999.90;999.90;;;;;;;;;;4949108;28;20283;-74
2023/05/13 06:33:16;;;;;;;1999.90;999.90;;;;;;;;;;4955286;28;20211;-73
2023/05/13 06:36:01;;;;;;;1999.90;999.90;;;;;;;;;;4947889;29;20226;-75
2023/05/13 06:38:46;;;;;;;1999.90;999.90;;;;;;;;;;4948727;29;20362;-74
2023/05/13 06:41:31;;;;;;;1999.90;999.90;;;;;;;;;;4959969;28;20216;-73
2023/05/13 06:44:15;;;;;;;1999.90;999.90;;;;;;;;;;4947316;29;20204;-75
2023/05/13 06:47:01;;;;;;;1999.90;999.90;;;;;;;;;;4945865;29;20282;-74
2023/05/13 06:49:48;;;;;;;1999.90;999.90;;;;;;;;;;4950701;29;20215;-74
2023/05/13 06:52:32;;;;;;;1999.90;999.90;;;;;;;;;;4941116;29;20216;-74
2023/05/13 06:55:18;;;;;;;1999.90;999.90;;;;;;;;;;4947549;29;20204;-75
2023/05/13 06:58:03;;;;;;;1999.90;999.90;;;;;;;;;;4944643;28;20239;-73
2023/05/13 07:00:48;;;;;;;1999.90;999.90;;;;;;;;;;4949731;29;20303;-74
2023/05/13 07:03:33;;;;;;;1999.90;999.90;;;;;;;;;;4952797;29;21091;-74
2023/05/13 07:06:19;;;;;;;1999.90;999.90;;;;;;;;;;4950391;29;20252;-74
2023/05/13 07:09:04;;;;;;;1999.90;999.90;;;;;;;;;;4948347;29;20376;-74
2023/05/13 07:11:49;;;;;;;1999.90;999.90;;;;;;;;;;4953494;29;20224;-74
2023/05/13 07:14:34;;;;;;;1999.90;999.90;;;;;;;;;;4949609;29;20593;-73
2023/05/13 07:17:18;;;;;;;1999.90;999.90;;;;;;;;;;4947025;29;20733;-74
2023/05/13 07:20:04;;;;;;;1999.90;999.90;;;;;;;;;;4944099;29;20278;-74
2023/05/13 07:22:50;;;;;;;1999.90;999.90;;;;;;;;;;4955589;29;20221;-73
2023/05/13 07:25:35;;;;;;;1999.90;999.90;;;;;;;;;;4956574;29;20224;-74
2023/05/13 07:28:20;;;;;;;1999.90;999.90;;;;;;;;;;4957836;28;20550;-74
2023/05/13 07:31:05;;;;;;;1999.90;999.90;;;;;;;;;;4961693;28;20230;-74
2023/05/13 07:33:50;;;;;;;1999.90;999.90;;;;;;;;;;4965857;28;20224;-73
2023/05/13 07:36:35;;;;;;;1999.90;999.90;;;;;;;;;;4974688;28;20216;-73
2023/05/13 07:39:21;;;;;;;1999.90;999.90;;;;;;;;;;4961703;28;20599;-72
2023/05/13 07:42:06;;;;;;;1999.90;999.90;;;;;;;;;;4949580;29;20238;-73
2023/05/13 07:44:51;;;;;;;1999.90;999.90;;;;;;;;;;4951755;29;20212;-71
2023/05/13 07:47:36;;;;;;;1999.90;999.90;;;;;;;;;;4949357;29;20232;-72
2023/05/13 07:50:21;;;;;;;1999.90;999.90;;;;;;;;;;4946205;29;20282;-72
2023/05/13 07:53:06;;;;;;;1999.90;999.90;;;;;;;;;;4949632;29;20209;-73
2023/05/13 07:55:53;;;;;;;1999.90;999.90;;;;;;;;;;4950763;29;20210;-71
2023/05/13 07:58:38;;;;;;;1999.90;999.90;;;;;;;;;;4954929;29;21024;-72
2023/05/13 08:01:23;;;;;;;1999.90;999.90;;;;;;;;;;4956650;29;20230;-72
2023/05/13 08:04:07;;;;;;;1999.90;999.90;;;;;;;;;;4956308;29;20212;-73
2023/05/13 08:06:52;;;;;;;1999.90;999.90;;;;;;;;;;4956449;29;20752;-72
2023/05/13 08:09:37;;;;;;;1999.90;999.90;;;;;;;;;;4948439;29;20745;-73
2023/05/13 08:12:23;;;;;;;1999.90;999.90;;;;;;;;;;4943999;29;20334;-72
2023/05/13 08:15:10;;;;;;;1999.90;999.90;;;;;;;;;;4950066;29;20488;-73
2023/05/13 08:17:55;;;;;;;1999.90;999.90;;;;;;;;;;4956180;29;20783;-73
2023/05/13 08:20:40;;;;;;;1999.90;999.90;;;;;;;;;;4948326;29;20218;-73
2023/05/13 08:23:25;;;;;;;1999.90;999.90;;;;;;;;;;4956610;29;20709;-73
2023/05/13 08:26:10;;;;;;;1999.90;999.90;;;;;;;;;;4955538;29;20220;-72
2023/05/13 08:28:57;;;;;;;1999.90;999.90;;;;;;;;;;4946627;28;20237;-71
2023/05/13 08:31:41;;;;;;;1999.90;999.90;;;;;;;;;;4971611;28;20297;-73
2023/05/13 08:34:26;;;;;;;1999.90;999.90;;;;;;;;;;4965018;28;20272;-71
2023/05/13 08:37:11;;;;;;;1999.90;999.90;;;;;;;;;;4968063;28;20199;-72
2023/05/13 08:39:59;;;;;;;1999.90;999.90;;;;;;;;;;4967351;28;20263;-71
2023/05/13 08:42:45;;;;;;;1999.90;999.90;;;;;;;;;;4965164;28;20231;-73
2023/05/13 08:45:32;;;;;;;1999.90;999.90;;;;;;;;;;4972134;28;20351;-72
2023/05/13 08:48:18;;;;;;;1999.90;999.90;;;;;;;;;;4966590;28;20598;-71
2023/05/13 08:51:03;;;;;;;1999.90;999.90;;;;;;;;;;4968806;28;20409;-70
2023/05/13 08:53:49;;;;;;;1999.90;999.90;;;;;;;;;;4963487;28;20286;-72
2023/05/13 08:56:34;;;;;;;1999.90;999.90;;;;;;;;;;4955962;29;20212;-72
2023/05/13 08:59:19;;;;;;;1999.90;999.90;;;;;;;;;;4948982;29;20229;-72
2023/05/13 09:02:06;;;;;;;1999.90;999.90;;;;;;;;;;4950668;29;20344;-72
2023/05/13 09:04:52;;;;;;;1999.90;999.90;;;;;;;;;;4955575;29;20209;-73
2023/05/13 09:07:38;;;;;;;1999.90;999.90;;;;;;;;;;4941716;29;20641;-72
2023/05/13 09:10:23;;;;;;;1999.90;999.90;;;;;;;;;;4940447;29;20217;-71
2023/05/13 09:13:08;;;;;;;1999.90;999.90;;;;;;;;;;4952903;29;20219;-70
2023/05/13 09:15:53;;;;;;;1999.90;999.90;;;;;;;;;;4949741;29;20210;-70
2023/05/13 09:18:41;;;;;;;1999.90;999.90;;;;;;;;;;4956469;28;20695;-70
2023/05/13 09:21:27;;;;;;;1999.90;999.90;;;;;;;;;;4953232;29;20317;-70
2023/05/13 09:24:17;;;;;;;1999.90;999.90;;;;;;;;;;4951939;29;20317;-70
2023/05/13 09:27:02;;;;;;;1999.90;999.90;;;;;;;;;;4954219;29;20228;-69
2023/05/13 09:29:48;;;;;;;1999.90;999.90;;;;;;;;;;4951554;28;20213;-71
2023/05/13 09:32:33;;;;;;;1999.90;999.90;;;;;;;;;;4959751;28;20239;-70
2023/05/13 09:35:20;;;;;;;1999.90;999.90;;;;;;;;;;4968008;28;20216;-71
2023/05/13 09:38:12;;;;;;;1999.90;999.90;;;;;;;;;;4967445;28;20425;-69
2023/05/13 09:40:57;;;;;;;1999.90;999.90;;;;;;;;;;4956887;28;20220;-70
2023/05/13 09:43:43;;;;;;;1999.90;999.90;;;;;;;;;;4950940;28;20216;-71
2023/05/13 09:46:28;;;;;;;1999.90;999.90;;;;;;;;;;4948819;29;20236;-71
2023/05/13 09:49:14;;;;;;;1999.90;999.90;;;;;;;;;;4949948;29;20708;-71
2023/05/13 09:52:00;;;;;;;1999.90;999.90;;;;;;;;;;4953783;29;20260;-69
2023/05/13 09:54:45;;;;;;;1999.90;999.90;;;;;;;;;;4954542;29;20215;-70
2023/05/13 09:57:30;;;;;;;1999.90;999.90;;;;;;;;;;4949820;29;20455;-69
2023/05/13 10:00:16;;;;;;;1999.90;999.90;;;;;;;;;;4947545;29;20205;-69
2023/05/13 10:03:01;;;;;;;1999.90;999.90;;;;;;;;;;4953589;29;20806;-71
2023/05/13 10:05:48;;;;;;;1999.90;999.90;;;;;;;;;;4952054;29;20260;-69
2023/05/13 10:08:35;;;;;;;1999.90;999.90;;;;;;;;;;4945778;29;20812;-72
2023/05/13 10:11:20;;;;;;;1999.90;999.90;;;;;;;;;;4948649;29;20212;-69
2023/05/13 10:14:05;;;;;;;1999.90;999.90;;;;;;;;;;4952338;29;20217;-70
2023/05/13 10:16:51;;;;;;;1999.90;999.90;;;;;;;;;;4939359;29;20336;-70
2023/05/13 10:19:36;;;;;;;1999.90;999.90;;;;;;;;;;4943724;29;20231;-72
2023/05/13 10:22:27;;;;;;;1999.90;999.90;;;;;;;;;;4949129;29;20214;-72
2023/05/13 10:25:13;;;;;;;1999.90;999.90;;;;;;;;;;4947059;29;20296;-72
2023/05/13 10:27:58;;;;;;;1999.90;999.90;;;;;;;;;;4948072;29;20315;-70
2023/05/13 10:30:43;;;;;;;1999.90;999.90;;;;;;;;;;4954223;29;20220;-72
2023/05/13 10:33:30;;;;;;;1999.90;999.90;;;;;;;;;;4948085;29;20268;-72
2023/05/13 10:36:33;;;;;;;1999.90;999.90;;;;;;;;;;4945530;29;20281;-72
2023/05/13 10:39:26;;;;;;;1999.90;999.90;;;;;;;;;;4942409;29;20228;-72
2023/05/13 10:42:24;;;;;;;1999.90;999.90;;;;;;;;;;4950108;29;20440;-71
2023/05/13 10:45:10;;;;;;;1999.90;999.90;;;;;;;;;;4946804;29;20216;-71
2023/05/13 10:47:56;;;;;;;1999.90;999.90;;;;;;;;;;4947100;29;20360;-71
2023/05/13 10:50:50;;;;;;;1999.90;999.90;;;;;;;;;;4950362;28;20692;-72
2023/05/13 10:53:36;;;;;;;1999.90;999.90;;;;;;;;;;4942161;28;20263;-73
2023/05/13 10:56:23;;;;;;;1999.90;999.90;;;;;;;;;;4959391;28;20225;-71
2023/05/13 10:59:11;;;;;;;1999.90;999.90;;;;;;;;;;4955576;28;20294;-73
2023/05/13 11:01:56;;;;;;;1999.90;999.90;;;;;;;;;;4946162;29;20737;-72
2023/05/13 11:04:56;;;;;;;1999.90;999.90;;;;;;;;;;4953692;29;20220;-73
2023/05/13 11:07:54;;;;;;;1999.90;999.90;;;;;;;;;;4949486;29;20256;-74
2023/05/13 11:10:40;;;;;;;1999.90;999.90;;;;;;;;;;4944204;29;20221;-73
2023/05/13 11:13:35;;;;;;;1999.90;999.90;;;;;;;;;;4934206;29;20209;-73
2023/05/13 11:16:22;;;;;;;1999.90;999.90;;;;;;;;;;4946372;29;20214;-75
2023/05/13 11:19:09;;;;;;;1999.90;999.90;;;;;;;;;;4953290;29;20233;-70
2023/05/13 11:21:55;;;;;;;1999.90;999.90;;;;;;;;;;4951672;29;20221;-74
2023/05/13 11:24:41;;;;;;;1999.90;999.90;;;;;;;;;;4947409;29;20589;-72
2023/05/13 11:27:26;;;;;;;1999.90;999.90;;;;;;;;;;4943924;28;20277;-72
2023/05/13 11:30:21;;;;;;;1999.90;999.90;;;;;;;;;;4942106;29;20220;-72
2023/05/13 11:33:11;;;;;;;1999.90;999.90;;;;;;;;;;4958487;28;20424;-73
2023/05/13 11:35:56;;;;;;;1999.90;999.90;;;;;;;;;;4945334;28;20450;-70
2023/05/13 11:38:41;;;;;;;1999.90;999.90;;;;;;;;;;4950121;28;20430;-72
2023/05/13 11:41:26;;;;;;;1999.90;999.90;;;;;;;;;;4957439;28;20217;-72
2023/05/13 11:44:11;;;;;;;1999.90;999.90;;;;;;;;;;4952609;29;20209;-72
2023/05/13 11:46:57;;;;;;;1999.90;999.90;;;;;;;;;;4949720;29;20610;-70
2023/05/13 11:49:44;;;;;;;1999.90;999.90;;;;;;;;;;4953163;29;20241;-70
2023/05/13 11:52:29;;;;;;;1999.90;999.90;;;;;;;;;;4953465;29;20312;-69
2023/05/13 11:55:24;;;;;;;1999.90;999.90;;;;;;;;;;4953098;29;20336;-71
2023/05/13 11:58:13;;;;;;;1999.90;999.90;;;;;;;;;;4950858;29;20231;-69
2023/05/13 12:00:58;;;;;;;1999.90;999.90;;;;;;;;;;4952894;29;20279;-69
2023/05/13 12:03:43;;;;;;;1999.90;999.90;;;;;;;;;;4953333;29;20213;-70
2023/05/13 12:06:30;;;;;;;1999.90;999.90;;;;;;;;;;4953284;28;20361;-70
2023/05/13 12:09:15;;;;;;;1999.90;999.90;;;;;;;;;;4956045;29;20250;-69
2023/05/13 12:12:00;;;;;;;1999.90;999.90;;;;;;;;;;4956616;29;20227;-70
2023/05/13 12:14:45;;;;;;;1999.90;999.90;;;;;;;;;;4946625;29;20212;-70
2023/05/13 12:17:30;;;;;;;1999.90;999.90;;;;;;;;;;4944684;29;20217;-70
2023/05/13 12:20:16;;;;;;;1999.90;999.90;;;;;;;;;;4956149;29;20685;-70
2023/05/13 12:23:03;;;;;;;1999.90;999.90;;;;;;;;;;4949868;29;20220;-69
2023/05/13 12:25:49;;;;;;;1999.90;999.90;;;;;;;;;;4956516;29;20220;-69
2023/05/13 12:28:35;;;;;;;1999.90;999.90;;;;;;;;;;4955879;29;20240;-70
2023/05/13 12:31:19;;;;;;;1999.90;999.90;;;;;;;;;;4959601;28;20213;-69
2023/05/13 12:34:05;;;;;;;1999.90;999.90;;;;;;;;;;4958308;28;20210;-69
2023/05/13 12:36:49;;;;;;;1999.90;999.90;;;;;;;;;;4956279;29;20352;-70
2023/05/13 12:39:36;;;;;;;1999.90;999.90;;;;;;;;;;4956067;29;20254;-68
2023/05/13 12:42:21;;;;;;;1999.90;999.90;;;;;;;;;;4956196;29;20263;-70
2023/05/13 12:45:06;;;;;;;1999.90;999.90;;;;;;;;;;4956235;29;20216;-70
2023/05/13 12:47:52;;;;;;;1999.90;999.90;;;;;;;;;;4955692;29;20309;-70
2023/05/13 12:50:37;;;;;;;1999.90;999.90;;;;;;;;;;4955421;29;20409;-69
2023/05/13 12:53:22;;;;;;;1999.90;999.90;;;;;;;;;;4948354;29;20260;-69
2023/05/13 12:56:08;;;;;;;1999.90;999.90;;;;;;;;;;4953754;28;20691;-69
2023/05/13 12:58:54;;;;;;;1999.90;999.90;;;;;;;;;;4941172;29;20230;-69
2023/05/13 13:01:39;;;;;;;1999.90;999.90;;;;;;;;;;4952888;29;20220;-69
2023/05/13 13:04:23;;;;;;;1999.90;999.90;;;;;;;;;;4940743;29;20217;-69
2023/05/13 13:07:11;;;;;;;1999.90;999.90;;;;;;;;;;4948814;29;20467;-70
2023/05/13 13:09:56;;;;;;;1999.90;999.90;;;;;;;;;;4944281;28;20209;-69
2023/05/13 13:12:43;;;;;;;1999.90;999.90;;;;;;;;;;4954882;29;20214;-69
2023/05/13 13:15:28;;;;;;;1999.90;999.90;;;;;;;;;;4951970;29;20334;-68
2023/05/13 13:18:13;;;;;;;1999.90;999.90;;;;;;;;;;4954991;28;20234;-70
2023/05/13 13:20:58;;;;;;;1999.90;999.90;;;;;;;;;;4954250;29;20216;-70
2023/05/13 13:23:43;;;;;;;1999.90;999.90;;;;;;;;;;4955679;29;20340;-70
2023/05/13 13:26:28;;;;;;;1999.90;999.90;;;;;;;;;;4954478;29;20217;-69
2023/05/13 13:29:14;;;;;;;1999.90;999.90;;;;;;;;;;4954784;29;20228;-69
2023/05/13 13:31:59;;;;;;;1999.90;999.90;;;;;;;;;;4954168;28;20313;-70
2023/05/13 13:34:44;;;;;;;1999.90;999.90;;;;;;;;;;4955447;29;20257;-69
2023/05/13 13:37:29;;;;;;;1999.90;999.90;;;;;;;;;;4947588;29;20214;-69
2023/05/13 13:40:13;;;;;;;1999.90;999.90;;;;;;;;;;4953425;29;20444;-70
2023/05/13 13:42:58;;;;;;;1999.90;999.90;;;;;;;;;;4955125;29;20726;-70
2023/05/13 13:45:44;;;;;;;1999.90;999.90;;;;;;;;;;4954345;29;20240;-70
2023/05/13 13:48:29;;;;;;;1999.90;999.90;;;;;;;;;;4947292;29;20236;-70
2023/05/13 13:51:14;;;;;;;1999.90;999.90;;;;;;;;;;4951345;29;20253;-70
2023/05/13 13:54:03;;;;;;;1999.90;999.90;;;;;;;;;;4936808;29;20214;-70
2023/05/13 13:56:48;;;;;;;1999.90;999.90;;;;;;;;;;4941840;29;20448;-70
2023/05/13 13:59:33;;;;;;;1999.90;999.90;;;;;;;;;;4944535;29;20227;-70
2023/05/13 14:02:19;;;;;;;1999.90;999.90;;;;;;;;;;4948602;29;20223;-69
2023/05/13 14:05:04;;;;;;;1999.90;999.90;;;;;;;;;;4951036;29;20304;-70
2023/05/13 14:07:52;;;;;;;1999.90;999.90;;;;;;;;;;4954128;29;20320;-70
2023/05/13 14:10:38;;;;;;;1999.90;999.90;;;;;;;;;;4954738;29;20325;-70
2023/05/13 14:13:22;;;;;;;1999.90;999.90;;;;;;;;;;4953114;29;20354;-70
2023/05/13 14:16:07;;;;;;;1999.90;999.90;;;;;;;;;;4941067;29;20222;-70
2023/05/13 14:18:54;;;;;;;1999.90;999.90;;;;;;;;;;4939488;29;20231;-70
2023/05/13 14:21:38;;;;;;;1999.90;999.90;;;;;;;;;;4941310;29;20216;-70
2023/05/13 14:24:24;;;;;;;1999.90;999.90;;;;;;;;;;4950400;29;20460;-69
2023/05/13 14:27:09;;;;;;;1999.90;999.90;;;;;;;;;;4953938;29;20243;-69
2023/05/13 14:29:54;;;;;;;1999.90;999.90;;;;;;;;;;4953436;28;20220;-71
2023/05/13 14:32:41;;;;;;;1999.90;999.90;;;;;;;;;;4954058;28;20222;-70
2023/05/13 14:35:27;;;;;;;1999.90;999.90;;;;;;;;;;4951890;29;20217;-70
2023/05/13 14:38:12;;;;;;;1999.90;999.90;;;;;;;;;;4953743;29;20308;-71
2023/05/13 14:40:57;;;;;;;1999.90;999.90;;;;;;;;;;4947219;29;20628;-71
2023/05/13 14:43:42;;;;;;;1999.90;999.90;;;;;;;;;;4951898;29;20694;-71
2023/05/13 14:46:27;;;;;;;1999.90;999.90;;;;;;;;;;4946583;29;20222;-70
2023/05/13 14:49:12;;;;;;;1999.90;999.90;;;;;;;;;;4952727;29;20851;-70
2023/05/13 14:51:58;;;;;;;1999.90;999.90;;;;;;;;;;4950032;29;20213;-70
2023/05/13 14:54:43;;;;;;;1999.90;999.90;;;;;;;;;;4950010;29;20297;-72
2023/05/13 14:57:28;;;;;;;1999.90;999.90;;;;;;;;;;4938937;29;20212;-69
2023/05/13 15:00:13;;;;;;;1999.90;999.90;;;;;;;;;;4948569;29;20211;-73
2023/05/13 15:02:58;;;;;;;1999.90;999.90;;;;;;;;;;4947903;29;20213;-70
2023/05/13 15:05:43;;;;;;;1999.90;999.90;;;;;;;;;;4943691;29;20730;-70
2023/05/13 15:08:30;;;;;;;1999.90;999.90;;;;;;;;;;4944200;29;20322;-71
2023/05/13 15:11:15;;;;;;;1999.90;999.90;;;;;;;;;;4952656;29;20562;-71
2023/05/13 15:14:01;;;;;;;1999.90;999.90;;;;;;;;;;4952947;29;20288;-69
2023/05/13 15:16:46;;;;;;;1999.90;999.90;;;;;;;;;;4942215;29;20244;-71
2023/05/13 15:19:30;;;;;;;1999.90;999.90;;;;;;;;;;4952010;29;20233;-69
2023/05/13 15:22:15;;;;;;;1999.90;999.90;;;;;;;;;;4952902;29;20590;-70
2023/05/13 15:25:01;;;;;;;1999.90;999.90;;;;;;;;;;4944061;29;20234;-70
2023/05/13 15:27:46;;;;;;;1999.90;999.90;;;;;;;;;;4946986;29;20238;-69
2023/05/13 15:30:35;;;;;;;1999.90;999.90;;;;;;;;;;4944317;29;20236;-71
2023/05/13 15:33:19;;;;;;;1999.90;999.90;;;;;;;;;;4945336;29;20217;-70
2023/05/13 15:36:05;;;;;;;1999.90;999.90;;;;;;;;;;4953531;29;20268;-70
2023/05/13 15:38:50;;;;;;;1999.90;999.90;;;;;;;;;;4950995;29;20236;-69
2023/05/13 15:41:36;;;;;;;1999.90;999.90;;;;;;;;;;4940278;28;20216;-69
2023/05/13 15:44:21;;;;;;;1999.90;999.90;;;;;;;;;;4956054;29;20205;-70
2023/05/13 15:47:06;;;;;;;1999.90;999.90;;;;;;;;;;4956140;29;20292;-69
2023/05/13 15:49:53;;;;;;;1999.90;999.90;;;;;;;;;;4953136;29;20211;-72
2023/05/13 15:52:38;;;;;;;1999.90;999.90;;;;;;;;;;4949150;29;20205;-73
2023/05/13 15:55:22;;;;;;;1999.90;999.90;;;;;;;;;;4956407;29;20439;-75
2023/05/13 15:58:09;;;;;;;1999.90;999.90;;;;;;;;;;4947155;29;20232;-72
2023/05/13 16:00:54;;;;;;;1999.90;999.90;;;;;;;;;;4956832;29;20222;-72
2023/05/13 16:03:38;;;;;;;1999.90;999.90;;;;;;;;;;4956109;29;20216;-72
2023/05/13 16:06:23;;;;;;;1999.90;999.90;;;;;;;;;;4955566;29;20784;-72
2023/05/13 16:09:09;;;;;;;1999.90;999.90;;;;;;;;;;4942947;29;20233;-73
2023/05/13 16:11:54;;;;;;;1999.90;999.90;;;;;;;;;;4955899;29;20700;-73
2023/05/13 16:14:40;;;;;;;1999.90;999.90;;;;;;;;;;4956650;29;20288;-73
2023/05/13 16:17:25;;;;;;;1999.90;999.90;;;;;;;;;;4955822;29;20220;-73
2023/05/13 16:20:10;;;;;;;1999.90;999.90;;;;;;;;;;4950666;29;20216;-71
2023/05/13 16:22:56;;;;;;;1999.90;999.90;;;;;;;;;;4952399;28;20212;-70
2023/05/13 16:25:42;;;;;;;1999.90;999.90;;;;;;;;;;4949238;29;20226;-69
2023/05/13 16:28:27;;;;;;;1999.90;999.90;;;;;;;;;;4950960;29;20238;-71
2023/05/13 16:31:13;;;;;;;1999.90;999.90;;;;;;;;;;4947408;29;20290;-71
2023/05/13 16:33:58;;;;;;;1999.90;999.90;;;;;;;;;;4956551;29;20702;-71
2023/05/13 16:36:43;;;;;;;1999.90;999.90;;;;;;;;;;4955604;29;20256;-69
2023/05/13 16:39:29;;;;;;;1999.90;999.90;;;;;;;;;;4953769;29;20229;-70
2023/05/13 16:42:14;;;;;;;1999.90;999.90;;;;;;;;;;4956296;29;20757;-70
2023/05/13 16:44:58;;;;;;;1999.90;999.90;;;;;;;;;;4951899;29;20769;-72
2023/05/13 16:47:45;;;;;;;1999.90;999.90;;;;;;;;;;4952815;29;20300;-71
2023/05/13 16:50:29;;;;;;;1999.90;999.90;;;;;;;;;;4951629;29;20228;-71
2023/05/13 16:53:14;;;;;;;1999.90;999.90;;;;;;;;;;4956111;28;20220;-69
2023/05/13 16:56:00;;;;;;;1999.90;999.90;;;;;;;;;;4951633;29;20723;-71
2023/05/13 16:58:45;;;;;;;1999.90;999.90;;;;;;;;;;4943473;29;20522;-70
2023/05/13 17:01:29;;;;;;;1999.90;999.90;;;;;;;;;;4951832;29;20300;-69
2023/05/13 17:04:16;;;;;;;1999.90;999.90;;;;;;;;;;4950226;29;20236;-71
2023/05/13 17:07:00;;;;;;;1999.90;999.90;;;;;;;;;;4954344;29;20214;-71
2023/05/13 17:09:45;;;;;;;1999.90;999.90;;;;;;;;;;4948113;29;20233;-70
2023/05/13 17:12:30;;;;;;;1999.90;999.90;;;;;;;;;;4956129;29;20348;-70
2023/05/13 17:15:15;;;;;;;1999.90;999.90;;;;;;;;;;4955126;29;20733;-70
2023/05/13 17:18:00;;;;;;;1999.90;999.90;;;;;;;;;;4955235;29;20267;-71
2023/05/13 17:20:46;;;;;;;1999.90;999.90;;;;;;;;;;4955785;29;20289;-70
2023/05/13 17:23:31;;;;;;;1999.90;999.90;;;;;;;;;;4954183;29;20597;-70
2023/05/13 17:26:16;;;;;;;1999.90;999.90;;;;;;;;;;4947330;28;21031;-69
2023/05/13 17:29:01;;;;;;;1999.90;999.90;;;;;;;;;;4954346;29;20240;-69
2023/05/13 17:31:48;;;;;;;1999.90;999.90;;;;;;;;;;4950701;29;20349;-69